McKinley, Minnesota
Current Conditions -  °F | °C
As of 10:31 AM on Friday 21 Nov 2014 (Local Time) from KEVM Reporting Station
Clear Clear  
Wind Chill:   Ceiling: Unl
Heat Index: 18°   Visibility: 10mi
Dew Point:   Wind: 12mph
Humidity: 68%   Direction: 170°S
Pressure: 29.97"   Gusts: NA
Location:  47.4793°N, 92.3932°W
Report Text: KEVM 211631Z AUTO 17010KT 10SM CLR M08/M13 A2997 RMK AO2
Loading
Personal Weather Stations






























Interactive Weather Map New forecast layout! Learn more

10-Day Weather Forecast

Advertisements
Track Severe Weather on mobile